createdAt,value
2018-06-27T00:01:58.252Z,6.57
2018-06-27T00:04:27.722Z,6.03
2018-06-27T00:06:57.505Z,6.13
2018-06-27T00:09:26.651Z,6.40
2018-06-27T00:11:56.128Z,5.97
2018-06-27T00:14:25.607Z,6.90
2018-06-27T00:16:55.101Z,7.33
2018-06-27T00:19:24.687Z,6.70
2018-06-27T00:21:54.190Z,6.13
2018-06-27T00:24:23.645Z,6.87
2018-06-27T00:29:28.714Z,6.47
2018-06-27T00:31:58.164Z,5.70
2018-06-27T00:34:27.666Z,5.73
2018-06-27T00:36:57.106Z,6.00
2018-06-27T00:39:26.564Z,6.37
2018-06-27T00:41:56.176Z,5.97
2018-06-27T00:44:25.634Z,6.90
2018-06-27T00:46:55.077Z,6.70
2018-06-27T00:49:24.550Z,6.03
2018-06-27T00:51:54.006Z,5.80
2018-06-27T00:54:23.427Z,6.67
2018-06-27T00:56:52.907Z,5.87
2018-06-27T00:59:22.390Z,6.63
2018-06-27T01:01:51.838Z,6.20
2018-06-27T01:04:21.285Z,5.20
2018-06-27T01:06:50.750Z,6.10
2018-06-27T01:09:20.222Z,6.10
2018-06-27T01:11:49.651Z,6.90
2018-06-27T01:14:19.114Z,5.30
2018-06-27T01:16:48.563Z,6.53
2018-06-27T01:19:18.017Z,6.40
2018-06-27T01:21:48.483Z,5.90
2018-06-27T01:24:18.520Z,6.00
2018-06-27T01:26:47.965Z,5.60
2018-06-27T01:29:18.623Z,7.23
2018-06-27T01:31:48.063Z,6.87
2018-06-27T01:34:18.178Z,7.47
2018-06-27T01:36:49.172Z,6.60
2018-06-27T01:39:18.727Z,6.93
2018-06-27T01:41:48.173Z,7.93
2018-06-27T01:44:17.639Z,7.90
2018-06-27T01:46:48.509Z,8.93
2018-06-27T01:49:17.961Z,7.80
2018-06-27T01:51:47.395Z,8.83
2018-06-27T01:54:16.828Z,8.83
2018-06-27T01:57:50.228Z,7.60
2018-06-27T02:00:19.691Z,8.10
2018-06-27T02:02:49.126Z,8.30
2018-06-27T02:05:18.664Z,8.53
2018-06-27T02:07:48.109Z,8.53
2018-06-27T02:10:18.305Z,9.03
2018-06-27T02:12:47.851Z,8.93
2018-06-27T02:15:17.354Z,8.83
2018-06-27T02:17:46.942Z,7.30
2018-06-27T02:20:16.770Z,7.40
2018-06-27T02:22:46.317Z,7.70
2018-06-27T02:25:15.838Z,7.40
2018-06-27T02:27:45.843Z,7.50
2018-06-27T02:30:17.102Z,7.67
2018-06-27T02:32:46.678Z,7.40
2018-06-27T02:35:16.253Z,7.70
2018-06-27T02:37:45.719Z,7.87
2018-06-27T02:40:15.294Z,6.50
2018-06-27T02:42:44.716Z,7.47
2018-06-27T02:45:14.239Z,6.77
2018-06-27T02:47:43.801Z,8.00
2018-06-27T02:50:13.408Z,8.80
2018-06-27T02:52:42.840Z,6.97
2018-06-27T02:55:13.402Z,7.87
2018-06-27T02:57:44.009Z,8.33
2018-06-27T03:00:15.684Z,7.10
2018-06-27T03:02:46.603Z,6.50
2018-06-27T03:05:16.178Z,7.97
2018-06-27T03:07:45.647Z,6.40
2018-06-27T03:10:15.140Z,7.00
2018-06-27T03:12:44.626Z,7.97
2018-06-27T03:15:14.100Z,7.07
2018-06-27T03:17:45.444Z,6.77
2018-06-27T03:20:14.955Z,6.53
2018-06-27T03:22:45.070Z,7.00
2018-06-27T03:25:14.512Z,7.53
2018-06-27T03:27:43.946Z,5.73
2018-06-27T03:30:13.487Z,6.73
2018-06-27T03:32:42.932Z,7.00
2018-06-27T03:35:12.416Z,6.53
2018-06-27T03:37:41.858Z,6.40
2018-06-27T03:40:11.327Z,5.87
2018-06-27T03:42:40.798Z,6.30
2018-06-27T03:45:10.413Z,5.90
2018-06-27T03:47:39.878Z,6.30
2018-06-27T03:50:09.367Z,6.30
2018-06-27T03:52:44.832Z,5.40
2018-06-27T03:55:14.743Z,5.90
2018-06-27T03:57:44.248Z,7.27
2018-06-27T04:00:13.779Z,5.63
2018-06-27T04:02:43.198Z,7.40
2018-06-27T04:05:12.801Z,6.07
2018-06-27T04:07:42.400Z,5.63
2018-06-27T04:10:12.444Z,6.23
2018-06-27T04:12:41.918Z,6.00
2018-06-27T04:15:11.417Z,5.50
2018-06-27T04:17:40.850Z,6.60
2018-06-27T04:20:10.362Z,5.10
2018-06-27T04:22:40.207Z,7.87
2018-06-27T04:25:09.728Z,6.27
2018-06-27T04:27:39.184Z,13.23
2018-06-27T04:30:18.582Z,10.70
2018-06-27T04:32:57.936Z,13.40
2018-06-27T04:35:28.230Z,15.20
2018-06-27T04:37:57.674Z,16.83
2018-06-27T04:40:26.781Z,14.37
2018-06-27T04:42:56.966Z,12.67
2018-06-27T04:45:26.445Z,13.97
2018-06-27T04:47:56.018Z,11.73
2018-06-27T04:50:25.876Z,11.10
2018-06-27T04:52:55.498Z,10.43
2018-06-27T04:55:25.008Z,9.30
2018-06-27T04:57:54.486Z,8.43
2018-06-27T05:00:23.947Z,9.53
2018-06-27T05:02:53.613Z,9.30
2018-06-27T05:05:23.325Z,8.00
2018-06-27T05:07:53.173Z,7.67
2018-06-27T05:10:22.893Z,8.20
2018-06-27T05:12:52.333Z,7.27
2018-06-27T05:15:21.860Z,7.50
2018-06-27T05:17:51.561Z,8.60
2018-06-27T05:20:22.612Z,7.33
2018-06-27T05:22:52.257Z,7.30
2018-06-27T05:25:21.706Z,8.00
2018-06-27T05:27:51.170Z,7.90
2018-06-27T05:30:20.673Z,6.17
2018-06-27T05:32:50.289Z,8.00
2018-06-27T05:35:19.760Z,7.87
2018-06-27T05:37:49.222Z,6.63
2018-06-27T05:40:18.674Z,7.20
2018-06-27T05:42:48.145Z,7.80
2018-06-27T05:45:17.787Z,7.63
2018-06-27T05:47:47.281Z,6.70
2018-06-27T05:50:16.916Z,7.73
2018-06-27T05:52:46.739Z,7.23
2018-06-27T05:55:27.412Z,7.37
2018-06-27T05:58:10.485Z,6.00
2018-06-27T06:00:40.757Z,6.20
2018-06-27T06:03:10.227Z,6.87
2018-06-27T06:05:39.857Z,7.70
2018-06-27T06:08:09.331Z,7.03
2018-06-27T06:10:38.445Z,7.00
2018-06-27T06:13:07.790Z,7.10
2018-06-27T06:15:37.902Z,7.97
2018-06-27T06:18:08.307Z,7.40
2018-06-27T06:20:37.812Z,7.30
2018-06-27T06:23:07.465Z,7.13
2018-06-27T06:25:36.952Z,8.30
2018-06-27T06:28:06.608Z,7.57
2018-06-27T06:30:37.246Z,6.80
2018-06-27T06:33:06.798Z,7.07
2018-06-27T06:35:36.299Z,7.70
2018-06-27T06:38:06.338Z,7.63
2018-06-27T06:40:39.996Z,6.30
2018-06-27T06:43:09.458Z,7.60
2018-06-27T06:45:39.092Z,7.47
2018-06-27T06:48:08.581Z,7.97
2018-06-27T06:50:38.085Z,7.70
2018-06-27T06:53:07.241Z,8.43
2018-06-27T06:55:36.665Z,9.10
2018-06-27T06:58:06.345Z,7.80
2018-06-27T07:00:35.802Z,7.93
2018-06-27T07:03:05.902Z,6.67
2018-06-27T07:05:35.380Z,9.27
2018-06-27T07:08:04.882Z,9.67
2018-06-27T07:10:34.502Z,9.27
2018-06-27T07:13:04.285Z,8.87
2018-06-27T07:15:33.803Z,9.97
2018-06-27T07:18:03.552Z,7.90
2018-06-27T07:20:33.386Z,7.20
2018-06-27T07:23:03.130Z,7.20
2018-06-27T07:25:32.822Z,8.30
2018-06-27T07:28:02.275Z,7.70
2018-06-27T07:30:32.522Z,7.37
2018-06-27T07:33:02.003Z,7.20
2018-06-27T07:35:31.656Z,7.10
2018-06-27T07:38:01.170Z,8.20
2018-06-27T07:40:31.080Z,7.30
2018-06-27T07:43:00.777Z,6.70
2018-06-27T07:45:30.461Z,5.83
2018-06-27T07:47:59.578Z,7.03
2018-06-27T07:50:29.226Z,5.03
2018-06-27T07:52:58.708Z,6.10
2018-06-27T07:55:29.119Z,6.30
2018-06-27T07:57:58.732Z,5.67
2018-06-27T08:00:28.250Z,6.60
2018-06-27T08:02:57.930Z,5.97
2018-06-27T08:08:28.075Z,5.43
2018-06-27T08:10:58.310Z,6.50
2018-06-27T08:13:27.753Z,4.93
2018-06-27T08:15:58.210Z,5.97
2018-06-27T08:18:27.861Z,4.97
2018-06-27T08:20:57.571Z,4.93
2018-06-27T08:23:27.303Z,5.67
2018-06-27T08:25:57.281Z,5.20
2018-06-27T08:28:27.117Z,4.43
2018-06-27T08:30:56.904Z,5.87
2018-06-27T08:33:27.373Z,5.40
2018-06-27T08:35:56.923Z,5.23
2018-06-27T08:38:26.725Z,5.47
2018-06-27T08:40:56.275Z,5.80
2018-06-27T08:43:26.022Z,5.47
2018-06-27T08:45:55.807Z,6.27
2018-06-27T08:48:25.483Z,5.40
2018-06-27T08:50:55.438Z,5.90
2018-06-27T08:53:25.254Z,4.70
2018-06-27T08:55:55.559Z,5.33
2018-06-27T08:58:25.344Z,5.40
2018-06-27T09:00:54.837Z,5.40
2018-06-27T09:03:24.535Z,6.10
2018-06-27T09:05:55.412Z,5.40
2018-06-27T09:08:25.121Z,5.27
2018-06-27T09:10:54.649Z,5.80
2018-06-27T09:13:24.487Z,4.63
2018-06-27T09:15:53.997Z,4.60
2018-06-27T09:18:23.542Z,5.90
2018-06-27T09:20:53.057Z,6.40
2018-06-27T09:23:23.281Z,6.10
2018-06-27T09:25:53.042Z,4.80
2018-06-27T09:28:22.506Z,5.93
2018-06-27T09:30:55.106Z,5.93
2018-06-27T09:33:39.380Z,6.30
2018-06-27T09:36:08.936Z,4.90
2018-06-27T09:38:38.627Z,5.10
2018-06-27T09:41:08.915Z,5.53
2018-06-27T09:43:39.963Z,4.43
2018-06-27T09:46:09.462Z,5.30
2018-06-27T09:48:38.951Z,4.77
2018-06-27T09:51:09.290Z,5.97
2018-06-27T09:53:38.926Z,5.20
2018-06-27T09:56:09.409Z,4.70
2018-06-27T09:58:38.970Z,6.30
2018-06-27T10:01:08.694Z,4.50
2018-06-27T10:03:38.218Z,5.50
2018-06-27T10:06:07.786Z,5.47
2018-06-27T10:08:37.330Z,4.93
2018-06-27T10:11:07.095Z,5.13
2018-06-27T10:13:37.422Z,5.00
2018-06-27T10:16:07.045Z,5.53
2018-06-27T10:18:36.762Z,6.77
2018-06-27T10:21:06.728Z,5.73
2018-06-27T10:23:36.908Z,5.77
2018-06-27T10:26:07.176Z,4.70
2018-06-27T10:28:38.130Z,5.00
2018-06-27T10:31:07.274Z,5.20
2018-06-27T10:33:39.200Z,4.40
2018-06-27T10:36:08.708Z,5.27
2018-06-27T10:38:38.418Z,5.20
2018-06-27T10:41:08.129Z,5.63
2018-06-27T10:43:38.499Z,5.43
2018-06-27T10:46:08.179Z,5.10
2018-06-27T10:48:37.759Z,4.33
2018-06-27T10:51:08.019Z,4.60
2018-06-27T10:53:38.070Z,5.07
2018-06-27T10:56:07.786Z,4.73
2018-06-27T10:58:38.480Z,4.67
2018-06-27T11:01:08.256Z,5.07
2018-06-27T11:03:37.782Z,5.00
2018-06-27T11:06:07.348Z,5.70
2018-06-27T11:08:36.948Z,5.13
2018-06-27T11:11:06.668Z,5.17
2018-06-27T11:13:36.368Z,4.60
2018-06-27T11:16:06.244Z,4.30
2018-06-27T11:18:36.218Z,4.40
2018-06-27T11:21:07.363Z,4.80
2018-06-27T11:23:37.235Z,3.60
2018-06-27T11:26:06.973Z,4.03
2018-06-27T11:28:36.782Z,5.27
2018-06-27T11:31:06.504Z,4.33
2018-06-27T11:33:36.036Z,4.50
2018-06-27T11:36:06.357Z,3.57
2018-06-27T11:38:36.516Z,4.00
2018-06-27T11:41:06.027Z,4.17
2018-06-27T11:43:36.094Z,3.43
2018-06-27T11:46:05.943Z,4.60
2018-06-27T11:48:36.257Z,3.77
2018-06-27T11:51:06.053Z,3.40
2018-06-27T11:53:35.749Z,4.50
2018-06-27T11:56:05.796Z,3.70
2018-06-27T11:58:36.141Z,4.20
2018-06-27T12:01:06.341Z,4.13
2018-06-27T12:03:36.062Z,3.80
2018-06-27T12:06:06.232Z,3.57
2018-06-27T12:08:35.974Z,3.90
2018-06-27T12:11:05.676Z,3.37
2018-06-27T12:13:35.251Z,3.50
2018-06-27T12:16:08.655Z,3.73
2018-06-27T12:18:38.400Z,3.63
2018-06-27T12:21:08.958Z,3.43
2018-06-27T12:23:39.082Z,3.27
2018-06-27T12:26:10.562Z,4.13
2018-06-27T12:28:40.399Z,3.87
2018-06-27T12:31:10.061Z,3.93
2018-06-27T12:33:40.618Z,4.53
2018-06-27T12:36:10.419Z,5.00
2018-06-27T12:38:40.581Z,3.83
2018-06-27T12:41:23.030Z,4.53
2018-06-27T12:44:00.475Z,3.93
2018-06-27T12:46:30.891Z,4.00
2018-06-27T12:49:00.530Z,4.60
2018-06-27T12:51:30.723Z,4.03
2018-06-27T12:54:01.540Z,3.53
2018-06-27T12:56:31.046Z,4.80
2018-06-27T12:59:00.938Z,5.00
2018-06-27T13:01:30.667Z,5.50
2018-06-27T13:04:01.028Z,5.30
2018-06-27T13:06:31.025Z,4.10
2018-06-27T13:09:00.636Z,5.43
2018-06-27T13:11:30.854Z,5.20
2018-06-27T13:14:00.627Z,5.00
2018-06-27T13:16:30.559Z,4.80
2018-06-27T13:19:00.425Z,5.70
2018-06-27T13:21:30.712Z,4.40
2018-06-27T13:24:00.753Z,4.37
2018-06-27T13:26:30.801Z,4.43
2018-06-27T13:29:01.616Z,4.83
2018-06-27T13:31:32.728Z,5.37
2018-06-27T13:34:02.511Z,4.27
2018-06-27T13:36:32.071Z,3.73
2018-06-27T13:39:04.805Z,3.93
2018-06-27T13:41:35.411Z,3.33
2018-06-27T13:44:05.659Z,3.50
2018-06-27T13:46:35.488Z,3.57
2018-06-27T13:49:06.554Z,2.80
2018-06-27T13:51:37.176Z,3.33
2018-06-27T13:54:07.609Z,3.23
2018-06-27T13:56:38.221Z,3.00
2018-06-27T13:59:08.513Z,2.40
2018-06-27T14:01:39.148Z,1.93
2018-06-27T14:04:09.215Z,2.37
2018-06-27T14:06:42.411Z,2.40
2018-06-27T14:09:12.243Z,2.87
2018-06-27T14:11:42.219Z,1.90
2018-06-27T14:14:13.928Z,2.60
2018-06-27T14:16:46.903Z,1.97
2018-06-27T14:19:18.033Z,2.10
2018-06-27T14:21:48.079Z,2.20
2018-06-27T14:24:18.396Z,1.63
2018-06-27T14:26:49.889Z,1.73
2018-06-27T14:29:21.346Z,1.40
2018-06-27T14:31:54.346Z,1.60
2018-06-27T14:34:24.803Z,1.53
2018-06-27T14:36:56.161Z,1.50
2018-06-27T14:39:27.369Z,1.60
2018-06-27T14:41:57.940Z,1.50
2018-06-27T14:44:28.734Z,1.83
2018-06-27T14:46:59.169Z,1.30
2018-06-27T14:49:30.196Z,1.50
2018-06-27T14:52:03.604Z,1.60
2018-06-27T14:54:33.815Z,1.70
2018-06-27T14:57:04.460Z,1.47
2018-06-27T14:59:34.189Z,1.03
2018-06-27T15:02:03.983Z,1.57
2018-06-27T15:04:33.693Z,1.63
2018-06-27T15:07:04.356Z,1.33
2018-06-27T15:09:33.802Z,1.80
2018-06-27T15:12:03.717Z,1.20
2018-06-27T15:14:34.285Z,1.27
2018-06-27T15:17:04.566Z,0.87
2018-06-27T15:19:35.489Z,1.30
2018-06-27T15:22:05.323Z,1.40
2018-06-27T15:24:36.803Z,1.10
2018-06-27T15:27:07.557Z,1.30
2018-06-27T15:29:37.797Z,1.10
2018-06-27T15:32:09.993Z,1.10
2018-06-27T15:34:40.333Z,0.93
2018-06-27T15:37:11.828Z,1.30
2018-06-27T15:39:42.314Z,1.10
2018-06-27T15:42:12.426Z,1.20
2018-06-27T15:44:42.364Z,1.10
2018-06-27T15:47:13.808Z,1.57
2018-06-27T15:49:44.850Z,1.13
2018-06-27T15:52:17.019Z,0.87
2018-06-27T15:54:47.854Z,1.50
2018-06-27T15:57:20.798Z,1.07
2018-06-27T15:59:54.152Z,0.90
2018-06-27T16:02:24.050Z,0.90
2018-06-27T16:04:54.103Z,1.27
2018-06-27T16:07:23.879Z,1.20
2018-06-27T16:09:53.876Z,0.90
2018-06-27T16:12:25.336Z,1.10
2018-06-27T16:14:55.281Z,1.33
2018-06-27T16:17:26.259Z,1.40
2018-06-27T16:19:56.125Z,1.50
2018-06-27T16:22:26.033Z,1.00
2018-06-27T16:24:57.047Z,0.90
2018-06-27T16:27:28.031Z,1.10
2018-06-27T16:29:57.826Z,1.10
2018-06-27T16:32:27.557Z,1.13
2018-06-27T16:34:57.901Z,0.70
2018-06-27T16:37:27.933Z,0.97
2018-06-27T16:39:58.201Z,0.97
2018-06-27T16:42:30.802Z,1.07
2018-06-27T16:45:02.875Z,0.97
2018-06-27T16:47:32.893Z,0.97
2018-06-27T16:50:02.745Z,1.20
2018-06-27T16:52:33.696Z,1.17
2018-06-27T16:55:03.625Z,1.00
2018-06-27T16:57:33.427Z,1.13
2018-06-27T17:00:03.143Z,0.70
2018-06-27T17:02:33.923Z,0.90
2018-06-27T17:05:03.891Z,0.90
2018-06-27T17:07:34.387Z,1.10
2018-06-27T17:10:04.434Z,0.73
2018-06-27T17:12:34.302Z,1.10
2018-06-27T17:15:05.903Z,0.80
2018-06-27T17:17:37.071Z,0.77
2018-06-27T17:20:08.090Z,1.00
2018-06-27T17:22:38.010Z,1.20
2018-06-27T17:25:07.951Z,0.93
2018-06-27T17:27:38.267Z,0.80
2018-06-27T17:30:09.295Z,0.83
2018-06-27T17:32:40.456Z,1.00
2018-06-27T17:35:10.804Z,0.60
2018-06-27T17:37:40.969Z,0.80
2018-06-27T17:40:11.586Z,1.03
2018-06-27T17:42:41.832Z,0.90
2018-06-27T17:45:13.462Z,1.10
2018-06-27T17:47:44.023Z,0.90
2018-06-27T17:50:14.689Z,0.80
2018-06-27T17:52:44.646Z,0.90
2018-06-27T17:55:16.597Z,1.07
2018-06-27T17:57:47.119Z,0.90
2018-06-27T18:00:18.648Z,0.70
2018-06-27T18:02:49.435Z,0.80
2018-06-27T18:05:21.911Z,1.10
2018-06-27T18:07:55.722Z,0.90
2018-06-27T18:10:27.680Z,0.73
2018-06-27T18:12:57.555Z,1.00
2018-06-27T18:15:26.705Z,0.90
2018-06-27T18:17:56.463Z,1.00
2018-06-27T18:20:26.693Z,0.80
2018-06-27T18:22:57.154Z,1.00
2018-06-27T18:25:30.143Z,0.90
2018-06-27T18:28:00.259Z,0.90
2018-06-27T18:30:29.977Z,1.10
2018-06-27T18:33:02.723Z,0.80
2018-06-27T18:35:33.783Z,1.30
2018-06-27T18:38:04.275Z,1.00
2018-06-27T18:40:35.241Z,1.03
2018-06-27T18:43:06.706Z,1.10
2018-06-27T18:45:36.656Z,0.87
2018-06-27T18:48:06.811Z,1.20
2018-06-27T18:50:37.212Z,0.90
2018-06-27T18:53:09.057Z,0.90
2018-06-27T18:55:39.004Z,1.10
2018-06-27T18:58:09.263Z,0.73
2018-06-27T19:00:40.386Z,1.27
2018-06-27T19:03:13.602Z,0.77
2018-06-27T19:05:46.290Z,0.77
2018-06-27T19:08:31.885Z,0.80
2018-06-27T19:11:10.099Z,1.30
2018-06-27T19:13:43.043Z,0.80
2018-06-27T19:16:14.301Z,0.90
2018-06-27T19:18:45.498Z,0.93
2018-06-27T19:21:15.359Z,0.80
2018-06-27T19:23:47.076Z,0.70
2018-06-27T19:26:17.400Z,0.70
2018-06-27T19:28:48.027Z,0.93
2018-06-27T19:31:19.378Z,0.80
2018-06-27T19:33:49.926Z,0.90
2018-06-27T19:36:21.035Z,0.70
2018-06-27T19:38:51.307Z,0.73
2018-06-27T19:41:21.125Z,0.90
2018-06-27T19:43:51.714Z,1.20
2018-06-27T19:46:22.594Z,0.93
2018-06-27T19:49:18.193Z,7.03
2018-06-27T19:51:48.549Z,5.90
2018-06-27T19:54:19.517Z,1.03
2018-06-27T19:56:49.110Z,1.03
2018-06-27T19:59:19.102Z,1.20
2018-06-27T20:01:52.140Z,1.00
2018-06-27T20:04:22.720Z,1.50
2018-06-27T20:06:52.815Z,1.37
2018-06-27T20:09:23.896Z,1.23
2018-06-27T20:11:54.036Z,1.40
2018-06-27T20:14:26.169Z,1.00
2018-06-27T20:16:57.354Z,1.33
2018-06-27T20:19:27.960Z,0.83
2018-06-27T20:21:57.837Z,1.33
2018-06-27T20:24:28.474Z,1.10
2018-06-27T20:27:01.259Z,1.03
2018-06-27T20:29:35.076Z,1.10
2018-06-27T20:32:05.797Z,1.00
2018-06-27T20:34:36.817Z,1.27
2018-06-27T20:37:06.621Z,1.13
2018-06-27T20:39:37.142Z,1.07
2018-06-27T20:42:08.448Z,1.20
2018-06-27T20:44:38.347Z,1.30
2018-06-27T20:47:09.865Z,0.80
2018-06-27T20:49:39.917Z,1.13
2018-06-27T20:52:09.827Z,0.80
2018-06-27T20:54:39.756Z,0.80
2018-06-27T20:57:09.759Z,1.30
2018-06-27T20:59:39.720Z,1.33
2018-06-27T21:02:09.072Z,1.20
2018-06-27T21:04:38.981Z,1.37
2018-06-27T21:07:09.098Z,1.20
2018-06-27T21:09:39.411Z,0.90
2018-06-27T21:12:09.133Z,1.27
2018-06-27T21:14:38.851Z,1.20
2018-06-27T21:17:08.903Z,1.20
2018-06-27T21:19:38.452Z,1.43
2018-06-27T21:22:08.425Z,1.23
2018-06-27T21:24:38.157Z,1.40
2018-06-27T21:27:08.646Z,1.13
2018-06-27T21:29:38.660Z,1.07
2018-06-27T21:32:08.293Z,1.10
2018-06-27T21:34:38.670Z,1.13
2018-06-27T21:37:08.221Z,1.20
2018-06-27T21:39:37.345Z,1.23
2018-06-27T21:42:07.456Z,1.23
2018-06-27T21:44:37.034Z,1.17
2018-06-27T21:47:06.485Z,2.07
2018-06-27T21:49:36.205Z,1.30
2018-06-27T21:52:05.866Z,1.60
2018-06-27T21:54:35.651Z,1.07
2018-06-27T21:57:05.355Z,0.93
2018-06-27T21:59:34.888Z,1.13
2018-06-27T22:02:04.807Z,1.30
2018-06-27T22:04:34.596Z,1.10
2018-06-27T22:07:04.292Z,1.20
2018-06-27T22:09:34.047Z,1.10
2018-06-27T22:12:03.601Z,1.70
2018-06-27T22:14:33.061Z,1.63
2018-06-27T22:17:02.674Z,1.00
2018-06-27T22:19:32.553Z,1.00
2018-06-27T22:22:02.173Z,1.30
2018-06-27T22:24:32.097Z,1.37
2018-06-27T22:27:01.789Z,1.00
2018-06-27T22:29:31.240Z,1.00
2018-06-27T22:32:01.017Z,1.23
2018-06-27T22:34:30.461Z,1.20
2018-06-27T22:37:00.083Z,1.30
2018-06-27T22:39:29.580Z,1.10
2018-06-27T22:41:59.071Z,1.47
2018-06-27T22:44:29.221Z,1.37
2018-06-27T22:46:58.843Z,1.50
2018-06-27T22:49:28.537Z,1.00
2018-06-27T22:51:57.969Z,1.20
2018-06-27T22:54:27.553Z,1.30
2018-06-27T22:56:57.163Z,1.10
2018-06-27T22:59:26.615Z,1.57
2018-06-27T23:01:56.073Z,1.10
2018-06-27T23:04:25.585Z,1.30
2018-06-27T23:06:55.096Z,1.20
2018-06-27T23:09:24.590Z,1.27
2018-06-27T23:11:54.031Z,1.23
2018-06-27T23:14:23.502Z,1.40
2018-06-27T23:16:53.441Z,1.17
2018-06-27T23:19:22.918Z,0.97
2018-06-27T23:21:52.394Z,1.63
2018-06-27T23:24:22.840Z,1.07
2018-06-27T23:26:52.629Z,1.23
2018-06-27T23:29:22.164Z,1.10
2018-06-27T23:31:51.635Z,1.70
2018-06-27T23:34:21.057Z,1.20
2018-06-27T23:36:51.613Z,1.30
2018-06-27T23:39:31.732Z,1.50
2018-06-27T23:44:28.771Z,1.10
2018-06-27T23:46:58.494Z,1.30
2018-06-27T23:49:28.012Z,1.60
2018-06-27T23:51:57.572Z,1.50
2018-06-27T23:54:27.023Z,1.20
2018-06-27T23:56:56.482Z,1.33
2018-06-27T23:59:25.932Z,1.30
